Time;durP1;ratioP1;P1;durP2;ratioP2;P2;SDS_P1;SDS_P2;PMS_P1;PMS_P2;Temp;Humidity;BMP_temperature;BMP_pressure;BME280_temperature;BME280_humidity;BME280_pressure;Samples;Min_cycle;Max_cycle;Signal;HPM_P1;HPM_P2
2021/12/01 00:00:23;;;;;;;6.10;5.50;;;10.50;99.90;;;;;;5078677;28;20176;-84
2021/12/01 00:02:53;;;;;;;6.13;5.57;;;10.50;99.90;;;;;;5077763;28;20196;-82
2021/12/01 00:05:25;;;;;;;6.00;5.37;;;10.40;99.90;;;;;;5076142;28;20613;-83
2021/12/01 00:07:52;;;;;;;5.90;5.30;;;10.50;99.90;;;;;;5077012;28;20176;-78
2021/12/01 00:10:19;;;;;;;6.13;4.93;;;10.40;99.90;;;;;;5075483;28;20207;-85
2021/12/01 00:12:46;;;;;;;5.47;4.97;;;10.50;99.90;;;;;;5078368;28;20153;-85
2021/12/01 00:15:12;;;;;;;5.60;5.10;;;10.50;99.90;;;;;;5080246;28;20194;-86
2021/12/01 00:17:37;;;;;;;5.00;4.50;;;10.40;99.90;;;;;;5080557;28;20179;-81
2021/12/01 00:20:10;;;;;;;5.40;4.90;;;10.30;99.90;;;;;;5080644;28;20184;-82
2021/12/01 00:23:17;;;;;;;4.67;4.17;;;10.30;99.90;;;;;;5080596;28;20157;-82
2021/12/01 00:25:46;;;;;;;5.30;3.83;;;10.30;99.90;;;;;;5080381;28;20153;-81
2021/12/01 00:28:22;;;;;;;4.23;3.83;;;10.40;99.90;;;;;;5078912;28;20173;-85
2021/12/01 00:34:10;;;;;;;4.13;3.17;;;10.30;99.90;;;;;;5072675;28;20165;-82
2021/12/01 00:36:39;;;;;;;3.43;3.13;;;10.30;99.90;;;;;;5075044;28;20252;-83
2021/12/01 00:39:08;;;;;;;4.43;3.27;;;10.30;99.90;;;;;;5071531;28;20345;-81
2021/12/01 00:41:39;;;;;;;3.33;3.03;;;10.40;99.90;;;;;;5066999;28;20153;-90
2021/12/01 00:44:09;;;;;;;3.90;3.03;;;10.30;99.90;;;;;;5043478;28;20168;-82
2021/12/01 00:47:04;;;;;;;3.30;3.00;;;10.30;99.90;;;;;;5044707;28;20177;-89
2021/12/01 00:49:42;;;;;;;3.10;2.43;;;10.30;99.90;;;;;;5060769;28;20161;-79
2021/12/01 00:52:17;;;;;;;3.10;2.77;;;10.30;99.90;;;;;;5060677;28;20172;-81
2021/12/01 00:54:47;;;;;;;5.07;3.30;;;10.30;99.90;;;;;;5060422;28;20181;-82
2021/12/01 00:58:01;;;;;;;4.03;2.60;;;10.30;99.90;;;;;;5047348;28;20271;-91
2021/12/01 01:01:02;;;;;;;3.60;3.10;;;10.20;99.90;;;;;;5041249;28;20212;-91
2021/12/01 01:04:03;;;;;;;3.57;2.90;;;10.20;99.90;;;;;;5039867;28;20154;-90
2021/12/01 01:07:03;;;;;;;3.20;2.90;;;10.20;99.90;;;;;;5038410;28;20161;-91
2021/12/01 01:09:31;;;;;;;5.00;2.77;;;10.10;99.90;;;;;;5036941;28;20173;-89
2021/12/01 01:17:36;;;;;;;6.30;2.60;;;10.10;99.90;;;;;;5059593;28;20184;-81
2021/12/01 01:20:04;;;;;;;3.70;2.67;;;10.00;99.90;;;;;;5051697;28;20220;-91
2021/12/01 01:25:51;;;;;;;3.63;2.70;;;10.00;99.90;;;;;;5040528;28;20216;-84
2021/12/01 01:28:17;;;;;;;4.37;3.50;;;10.00;99.90;;;;;;5041605;28;20174;-89
2021/12/01 01:30:42;;;;;;;3.83;3.07;;;9.90;99.90;;;;;;5053893;28;20150;-81
2021/12/01 01:33:08;;;;;;;4.03;3.40;;;9.90;99.90;;;;;;5053806;28;20193;-83
2021/12/01 01:35:34;;;;;;;4.20;3.77;;;9.90;99.90;;;;;;5055050;28;20173;-80
2021/12/01 01:37:59;;;;;;;6.27;4.20;;;9.80;99.90;;;;;;5054805;28;20239;-80
2021/12/01 01:40:26;;;;;;;5.07;3.70;;;9.90;99.90;;;;;;5040750;28;20170;-85
2021/12/01 01:42:52;;;;;;;4.60;3.87;;;9.70;99.90;;;;;;5035264;28;20196;-91
2021/12/01 01:45:18;;;;;;;6.50;4.37;;;9.70;99.90;;;;;;5036902;28;20630;-89
2021/12/01 01:47:59;;;;;;;6.50;4.93;;;9.70;99.90;;;;;;5036212;28;20186;-81
2021/12/01 01:52:51;;;;;;;5.97;4.70;;;9.60;99.90;;;;;;5056697;28;20172;-80
2021/12/01 01:55:16;;;;;;;6.27;5.10;;;9.60;99.90;;;;;;5050491;28;20174;-89
2021/12/01 01:58:04;;;;;;;6.23;5.17;;;9.60;99.90;;;;;;5045909;28;20213;-90
2021/12/01 02:01:08;;;;;;;5.63;5.03;;;9.60;99.90;;;;;;5041505;28;20162;-89
2021/12/01 02:03:38;;;;;;;6.30;4.90;;;9.60;99.90;;;;;;5039484;28;20220;-83
2021/12/01 02:06:07;;;;;;;6.63;4.37;;;9.60;99.90;;;;;;5039645;28;20346;-90
2021/12/01 02:08:35;;;;;;;5.73;5.13;;;9.60;99.90;;;;;;5047298;28;20181;-91
2021/12/01 02:11:07;;;;;;;7.63;4.80;;;9.50;99.90;;;;;;5035670;28;20165;-78
2021/12/01 02:13:33;;;;;;;9.83;6.00;;;9.60;99.90;;;;;;5042699;28;20162;-79
2021/12/01 02:16:00;;;;;;;6.83;4.53;;;9.60;99.90;;;;;;5053240;28;20165;-78
2021/12/01 02:18:27;;;;;;;6.13;4.83;;;9.60;99.90;;;;;;5053110;28;20283;-79
2021/12/01 02:21:11;;;;;;;6.03;4.90;;;9.70;99.90;;;;;;5053302;28;20192;-78
2021/12/01 02:23:42;;;;;;;6.47;5.27;;;9.50;99.90;;;;;;5055497;28;20157;-87
2021/12/01 02:26:10;;;;;;;7.03;5.50;;;9.50;99.90;;;;;;5054286;28;20180;-89
2021/12/01 02:28:37;;;;;;;5.50;4.77;;;9.60;99.90;;;;;;5054380;28;20203;-88
2021/12/01 02:31:03;;;;;;;7.00;5.53;;;9.50;99.90;;;;;;5058959;28;20185;-86
2021/12/01 02:33:29;;;;;;;5.43;4.57;;;9.50;99.90;;;;;;5062837;28;20195;-86
2021/12/01 02:35:55;;;;;;;5.90;4.53;;;9.50;99.90;;;;;;5065066;28;20637;-82
2021/12/01 02:38:22;;;;;;;6.67;5.03;;;9.40;99.90;;;;;;5058030;28;20246;-89
2021/12/01 02:40:50;;;;;;;7.60;4.87;;;9.50;99.90;;;;;;5056968;28;20165;-88
2021/12/01 02:43:17;;;;;;;7.47;4.83;;;9.40;99.90;;;;;;5057784;28;20176;-87
2021/12/01 02:45:45;;;;;;;6.43;4.90;;;9.40;99.90;;;;;;5056507;28;20248;-90
2021/12/01 02:48:13;;;;;;;5.43;4.70;;;9.50;99.90;;;;;;5058499;28;20173;-90
2021/12/01 02:50:40;;;;;;;5.97;4.93;;;9.30;99.90;;;;;;5072304;28;20225;-88
2021/12/01 02:53:06;;;;;;;7.37;4.43;;;9.30;99.90;;;;;;5071465;28;20203;-84
2021/12/01 02:55:39;;;;;;;5.83;4.67;;;9.30;99.90;;;;;;5069010;28;20165;-90
2021/12/01 02:58:15;;;;;;;5.83;4.47;;;9.30;99.90;;;;;;5061999;28;20211;-90
2021/12/01 03:00:41;;;;;;;4.10;3.50;;;9.40;99.90;;;;;;5061765;28;20156;-88
2021/12/01 03:03:07;;;;;;;5.07;4.00;;;9.30;99.90;;;;;;5062524;28;20165;-89
2021/12/01 03:05:33;;;;;;;4.90;4.10;;;9.30;99.90;;;;;;5066515;28;20165;-89
2021/12/01 03:07:59;;;;;;;7.27;4.43;;;9.30;99.90;;;;;;5063189;28;20169;-90
2021/12/01 03:10:24;;;;;;;6.90;4.10;;;9.30;99.90;;;;;;5065013;28;20169;-87
2021/12/01 03:12:50;;;;;;;4.60;3.40;;;9.30;99.90;;;;;;5071488;28;20257;-81
2021/12/01 03:15:16;;;;;;;5.33;3.90;;;9.30;99.90;;;;;;5071524;28;20185;-90
2021/12/01 03:17:44;;;;;;;4.57;3.27;;;9.30;99.90;;;;;;5060097;28;20533;-90
2021/12/01 03:20:12;;;;;;;4.73;3.40;;;9.30;99.90;;;;;;5064013;28;20184;-90
2021/12/01 03:22:38;;;;;;;4.80;3.23;;;9.30;99.90;;;;;;5070409;28;20176;-85
2021/12/01 03:25:14;;;;;;;4.40;3.00;;;9.30;99.90;;;;;;5071559;28;20177;-89
2021/12/01 03:27:41;;;;;;;3.73;2.80;;;9.30;99.90;;;;;;5063943;28;20243;-78
2021/12/01 03:30:11;;;;;;;4.33;3.20;;;9.30;99.90;;;;;;5057525;28;20191;-77
2021/12/01 03:32:37;;;;;;;5.97;3.03;;;9.20;99.90;;;;;;5057712;28;20240;-79
2021/12/01 03:35:12;;;;;;;6.27;2.90;;;9.20;99.90;;;;;;5055666;28;20622;-80
2021/12/01 03:37:42;;;;;;;3.60;2.60;;;9.20;99.90;;;;;;5072797;28;20232;-80
2021/12/01 03:40:08;;;;;;;3.43;2.60;;;9.20;99.90;;;;;;5056721;28;20621;-79
2021/12/01 03:42:34;;;;;;;4.33;2.47;;;9.20;99.90;;;;;;5055567;28;20216;-78
2021/12/01 03:45:00;;;;;;;4.13;2.43;;;9.20;99.90;;;;;;5057737;28;20726;-79
2021/12/01 03:47:27;;;;;;;3.63;2.23;;;9.20;99.90;;;;;;5059269;28;20521;-78
2021/12/01 03:49:59;;;;;;;4.13;2.50;;;9.20;99.90;;;;;;5057051;28;20196;-79
2021/12/01 03:52:25;;;;;;;4.57;2.13;;;9.30;99.90;;;;;;5056956;28;20202;-78
2021/12/01 03:54:52;;;;;;;3.83;2.23;;;9.30;99.90;;;;;;5057196;28;20253;-79
2021/12/01 03:57:18;;;;;;;3.40;2.40;;;9.30;99.90;;;;;;5057455;28;20238;-78
2021/12/01 03:59:44;;;;;;;4.03;2.13;;;9.40;99.90;;;;;;5067043;28;20313;-79
2021/12/01 04:02:10;;;;;;;4.87;2.10;;;9.30;99.90;;;;;;5081381;28;20180;-82
2021/12/01 04:04:36;;;;;;;2.47;1.73;;;9.30;99.90;;;;;;5078170;28;20209;-77
2021/12/01 04:07:02;;;;;;;3.10;2.00;;;9.40;99.90;;;;;;5074239;28;20157;-79
2021/12/01 04:09:42;;;;;;;4.77;1.80;;;9.30;99.90;;;;;;5057855;28;20168;-78
2021/12/01 04:12:23;;;;;;;2.73;1.60;;;9.30;99.90;;;;;;5059792;28;20157;-79
2021/12/01 04:14:48;;;;;;;3.63;2.30;;;9.30;99.90;;;;;;5060125;28;20191;-78
2021/12/01 04:17:14;;;;;;;5.37;3.00;;;9.30;99.90;;;;;;5071224;28;20185;-77
2021/12/01 04:19:40;;;;;;;6.93;3.57;;;9.40;99.90;;;;;;5070040;28;20208;-78
2021/12/01 04:22:06;;;;;;;6.03;3.87;;;9.30;99.90;;;;;;5074008;28;20200;-78
2021/12/01 04:24:47;;;;;;;6.33;4.67;;;9.30;99.90;;;;;;5080221;28;20153;-78
2021/12/01 04:27:21;;;;;;;7.50;5.00;;;9.30;99.90;;;;;;5070754;28;20172;-78
2021/12/01 04:29:52;;;;;;;12.07;6.30;;;9.30;99.90;;;;;;5066528;28;20145;-78
2021/12/01 04:32:21;;;;;;;7.30;5.07;;;9.30;99.90;;;;;;5060685;28;20215;-78
2021/12/01 04:34:50;;;;;;;7.00;4.70;;;9.30;99.90;;;;;;5061068;28;20161;-80
2021/12/01 04:37:18;;;;;;;7.43;4.63;;;9.40;99.90;;;;;;5057238;28;20165;-80
2021/12/01 04:40:03;;;;;;;6.73;4.20;;;9.30;99.90;;;;;;5058040;28;20295;-79
2021/12/01 04:42:28;;;;;;;5.53;3.63;;;9.30;99.90;;;;;;5056842;28;20236;-77
2021/12/01 04:44:54;;;;;;;4.97;3.17;;;9.30;99.90;;;;;;5043660;28;20574;-78
2021/12/01 04:47:26;;;;;;;4.70;2.90;;;9.20;99.90;;;;;;5036735;28;20178;-84
2021/12/01 04:50:19;;;;;;;3.67;2.50;;;9.20;99.90;;;;;;5037842;28;20154;-82
2021/12/01 04:52:47;;;;;;;4.47;2.90;;;9.10;99.90;;;;;;5047585;28;20162;-78
2021/12/01 04:55:13;;;;;;;3.63;2.60;;;9.10;99.90;;;;;;5040950;28;20257;-81
2021/12/01 04:57:41;;;;;;;3.87;2.03;;;9.00;99.90;;;;;;5038198;28;20213;-77
2021/12/01 05:00:12;;;;;;;3.77;2.30;;;9.10;99.90;;;;;;5036889;28;20193;-79
2021/12/01 05:02:38;;;;;;;3.57;2.50;;;9.10;99.90;;;;;;5040292;28;20172;-78
2021/12/01 05:05:06;;;;;;;5.03;2.77;;;9.00;99.90;;;;;;5041248;28;20174;-77
2021/12/01 05:07:32;;;;;;;3.83;2.87;;;9.00;99.90;;;;;;5040819;28;20316;-78
2021/12/01 05:09:58;;;;;;;4.13;2.83;;;9.00;99.90;;;;;;5038438;28;20176;-79
2021/12/01 05:12:25;;;;;;;6.90;3.33;;;8.90;99.90;;;;;;5037056;28;20181;-77
2021/12/01 05:14:52;;;;;;;4.60;2.97;;;9.00;99.90;;;;;;5036938;28;20166;-77
2021/12/01 05:17:20;;;;;;;4.30;3.30;;;9.00;99.90;;;;;;5035588;28;20189;-78
2021/12/01 05:19:49;;;;;;;7.87;3.70;;;8.90;99.90;;;;;;5036587;28;20557;-78
2021/12/01 05:22:18;;;;;;;5.13;3.20;;;9.00;99.90;;;;;;5036283;28;20721;-78
2021/12/01 05:24:45;;;;;;;5.43;3.70;;;9.00;99.90;;;;;;5037798;28;20178;-80
2021/12/01 05:27:17;;;;;;;7.43;3.77;;;9.10;99.90;;;;;;5052552;28;20233;-80
2021/12/01 05:29:44;;;;;;;8.77;3.63;;;9.10;99.90;;;;;;5049014;28;20221;-89
2021/12/01 05:32:09;;;;;;;5.53;3.37;;;9.10;99.90;;;;;;5046873;28;20169;-85
2021/12/01 05:34:35;;;;;;;6.53;3.43;;;9.10;99.90;;;;;;5044426;28;20240;-82
2021/12/01 05:37:03;;;;;;;5.03;3.03;;;9.10;99.90;;;;;;5046407;28;20174;-87
2021/12/01 05:39:39;;;;;;;4.70;2.70;;;9.10;99.90;;;;;;5042951;28;20201;-90
2021/12/01 05:42:08;;;;;;;6.50;2.70;;;9.10;99.90;;;;;;5051227;28;20169;-84
2021/12/01 05:44:49;;;;;;;2.67;1.80;;;9.20;99.90;;;;;;5052381;28;20165;-77
2021/12/01 05:47:24;;;;;;;2.30;1.57;;;9.20;99.90;;;;;;5051360;28;20170;-79
2021/12/01 05:49:53;;;;;;;3.13;1.50;;;9.20;99.90;;;;;;5051343;28;20554;-77
2021/12/01 05:52:21;;;;;;;2.33;1.63;;;9.30;99.90;;;;;;5050624;28;20162;-79
2021/12/01 05:54:53;;;;;;;2.37;1.40;;;9.30;99.90;;;;;;5050933;28;20166;-77
2021/12/01 05:57:30;;;;;;;2.43;1.40;;;9.30;99.90;;;;;;5051495;28;20204;-82
2021/12/01 05:59:55;;;;;;;3.20;1.30;;;9.40;99.90;;;;;;5048564;28;20213;-84
2021/12/01 06:02:21;;;;;;;3.23;1.50;;;9.50;99.90;;;;;;5047109;28;20161;-88
2021/12/01 06:04:48;;;;;;;1.60;1.20;;;9.40;99.90;;;;;;5043324;28;20579;-83
2021/12/01 06:07:16;;;;;;;2.57;1.30;;;9.40;99.90;;;;;;5046228;28;20273;-85
2021/12/01 06:10:15;;;;;;;2.63;1.43;;;9.30;99.90;;;;;;5043003;28;20694;-88
2021/12/01 06:12:49;;;;;;;3.23;1.63;;;9.30;99.90;;;;;;5057929;28;20189;-79
2021/12/01 06:15:30;;;;;;;2.97;2.00;;;9.30;99.90;;;;;;5054636;28;20171;-80
2021/12/01 06:18:20;;;;;;;2.73;1.63;;;9.30;99.90;;;;;;5055547;28;20180;-79
2021/12/01 06:20:46;;;;;;;2.53;1.50;;;9.30;99.90;;;;;;5054998;28;20189;-91
2021/12/01 06:23:13;;;;;;;3.07;1.80;;;9.40;99.90;;;;;;5051585;28;20493;-92
2021/12/01 06:25:39;;;;;;;2.80;1.70;;;9.40;99.90;;;;;;5046632;28;20622;-81
2021/12/01 06:28:05;;;;;;;1.70;1.40;;;9.40;99.90;;;;;;5049920;28;20200;-89
2021/12/01 06:30:36;;;;;;;2.03;1.40;;;9.40;99.90;;;;;;5055285;28;20200;-90
2021/12/01 06:33:03;;;;;;;1.93;1.50;;;9.40;99.90;;;;;;5048274;28;20157;-88
2021/12/01 06:35:32;;;;;;;2.07;1.43;;;9.40;99.90;;;;;;5047284;28;20170;-89
2021/12/01 06:38:01;;;;;;;2.53;1.33;;;9.40;99.90;;;;;;5043347;28;20183;-91
2021/12/01 06:40:30;;;;;;;1.53;1.10;;;9.50;99.90;;;;;;5042883;28;20176;-87
2021/12/01 06:46:18;;;;;;;1.87;1.40;;;9.60;99.90;;;;;;5038217;28;20531;-91
2021/12/01 06:48:51;;;;;;;2.00;1.30;;;9.60;99.90;;;;;;5040054;28;20181;-88
2021/12/01 06:51:18;;;;;;;1.10;1.00;;;9.60;99.90;;;;;;5042043;28;20173;-89
2021/12/01 06:53:45;;;;;;;2.00;1.30;;;9.60;99.90;;;;;;5042211;28;20173;-85
2021/12/01 06:56:12;;;;;;;1.50;1.23;;;9.60;99.90;;;;;;5040474;28;20256;-88
2021/12/01 06:58:40;;;;;;;1.77;1.30;;;9.60;99.90;;;;;;5041991;28;20292;-86
2021/12/01 07:01:07;;;;;;;1.10;1.00;;;9.60;99.90;;;;;;5041232;28;20161;-80
2021/12/01 07:03:34;;;;;;;1.63;1.40;;;9.70;99.90;;;;;;5073531;28;20196;-91
2021/12/01 07:05:59;;;;;;;2.00;1.33;;;9.70;99.90;;;;;;5072198;28;20179;-89
2021/12/01 07:08:25;;;;;;;2.80;1.20;;;9.80;99.90;;;;;;5089071;28;20176;-86
2021/12/01 07:10:54;;;;;;;1.97;1.00;;;9.80;99.90;;;;;;5084416;28;20188;-83
2021/12/01 07:13:36;;;;;;;1.40;0.93;;;9.90;99.90;;;;;;5082034;28;20190;-81
2021/12/01 07:16:03;;;;;;;3.13;1.27;;;9.90;99.90;;;;;;5075621;28;20172;-83
2021/12/01 07:18:29;;;;;;;1.73;0.90;;;9.80;99.90;;;;;;5082773;28;20196;-84
2021/12/01 07:20:56;;;;;;;2.67;1.53;;;9.80;99.90;;;;;;5076416;28;20191;-79
2021/12/01 07:23:32;;;;;;;3.63;1.10;;;9.80;99.90;;;;;;5075438;28;20165;-84
2021/12/01 07:25:58;;;;;;;3.20;0.93;;;9.80;99.90;;;;;;5074240;28;20199;-83
2021/12/01 07:31:46;;;;;;;3.57;1.30;;;9.90;99.90;;;;;;5058682;28;20164;-81
2021/12/01 07:34:12;;;;;;;2.47;1.20;;;9.80;99.90;;;;;;5055048;28;20172;-83
2021/12/01 07:36:38;;;;;;;4.27;1.40;;;9.70;99.90;;;;;;5053478;28;20185;-82
2021/12/01 07:39:03;;;;;;;3.50;1.20;;;9.80;99.90;;;;;;5056307;28;20235;-81
2021/12/01 07:41:29;;;;;;;2.97;1.53;;;9.80;99.90;;;;;;5057508;28;20165;-81
2021/12/01 07:43:55;;;;;;;2.90;1.50;;;9.80;99.90;;;;;;5068873;28;20234;-82
2021/12/01 07:46:21;;;;;;;2.47;1.37;;;9.80;99.90;;;;;;5080086;28;20174;-81
2021/12/01 07:48:47;;;;;;;1.67;1.40;;;9.80;99.90;;;;;;5079658;28;20195;-86
2021/12/01 07:51:14;;;;;;;2.50;1.80;;;10.00;99.90;;;;;;5078124;28;20188;-88
2021/12/01 07:53:44;;;;;;;2.60;1.50;;;9.80;99.90;;;;;;5077765;28;20218;-82
2021/12/01 07:56:28;;;;;;;1.70;1.33;;;9.90;99.90;;;;;;5064632;28;20207;-81
2021/12/01 07:59:04;;;;;;;2.03;1.60;;;10.00;99.90;;;;;;5082925;28;20212;-83
2021/12/01 08:01:29;;;;;;;3.43;2.00;;;10.00;99.90;;;;;;5059122;28;20161;-82
2021/12/01 08:03:56;;;;;;;2.10;1.60;;;10.00;99.90;;;;;;5055606;28;20324;-82
2021/12/01 08:06:22;;;;;;;2.90;1.67;;;10.00;99.90;;;;;;5055056;28;20165;-81
2021/12/01 08:09:00;;;;;;;3.63;1.70;;;10.00;99.90;;;;;;5055322;28;20176;-81
2021/12/01 08:11:34;;;;;;;2.20;1.70;;;9.90;99.90;;;;;;5059486;28;20185;-82
2021/12/01 08:14:00;;;;;;;1.90;1.50;;;9.90;99.90;;;;;;5054572;28;20539;-80
2021/12/01 08:16:27;;;;;;;2.23;1.83;;;9.90;99.90;;;;;;5055314;28;20185;-81
2021/12/01 08:18:55;;;;;;;2.90;1.93;;;9.90;99.90;;;;;;5054640;28;20207;-82
2021/12/01 08:21:24;;;;;;;2.50;2.07;;;10.10;99.90;;;;;;5060021;28;20185;-89
2021/12/01 08:23:52;;;;;;;2.10;1.60;;;10.00;99.90;;;;;;5058872;28;20169;-89
2021/12/01 08:26:19;;;;;;;1.90;1.70;;;10.00;99.90;;;;;;5056404;28;20250;-89
2021/12/01 08:28:47;;;;;;;2.30;1.80;;;10.10;99.90;;;;;;5057619;28;20181;-88
2021/12/01 08:31:15;;;;;;;3.03;1.60;;;10.10;99.90;;;;;;5057107;28;20227;-90
2021/12/01 08:33:42;;;;;;;4.07;1.77;;;10.10;99.90;;;;;;5062226;28;20169;-83
2021/12/01 08:36:09;;;;;;;2.20;1.87;;;10.10;99.90;;;;;;5055602;28;20177;-83
2021/12/01 08:38:36;;;;;;;2.60;2.03;;;10.10;99.90;;;;;;5056841;28;20235;-89
2021/12/01 08:41:03;;;;;;;2.97;1.87;;;10.10;99.90;;;;;;5056890;28;20169;-89
2021/12/01 08:43:28;;;;;;;3.73;2.13;;;10.10;99.90;;;;;;5056414;28;20201;-86
2021/12/01 08:45:54;;;;;;;3.10;2.50;;;10.10;99.90;;;;;;5068589;28;20176;-84
2021/12/01 08:48:20;;;;;;;3.37;2.83;;;10.20;99.90;;;;;;5074388;28;20175;-81
2021/12/01 08:50:46;;;;;;;2.60;1.93;;;10.10;99.90;;;;;;5052984;28;20188;-81
2021/12/01 08:53:12;;;;;;;3.93;2.13;;;10.10;99.90;;;;;;5055039;28;20169;-81
2021/12/01 08:55:40;;;;;;;2.83;1.97;;;10.20;99.90;;;;;;5055081;28;20180;-85
2021/12/01 08:58:11;;;;;;;2.67;2.30;;;10.20;99.90;;;;;;5055357;28;20207;-86
2021/12/01 09:00:41;;;;;;;2.60;2.00;;;10.20;99.90;;;;;;5065855;28;20187;-83
2021/12/01 09:03:07;;;;;;;4.33;2.97;;;10.10;99.90;;;;;;5028570;28;21423;-82
2021/12/01 09:05:33;;;;;;;2.90;2.37;;;10.20;99.90;;;;;;5034157;28;20169;-81
2021/12/01 09:07:59;;;;;;;3.63;2.97;;;10.30;99.90;;;;;;5041796;28;20223;-81
2021/12/01 09:10:25;;;;;;;2.93;2.63;;;10.30;99.90;;;;;;5061585;28;20267;-84
2021/12/01 09:12:50;;;;;;;4.23;3.50;;;10.20;99.90;;;;;;5043008;28;20542;-82
2021/12/01 09:15:18;;;;;;;3.27;2.63;;;10.20;99.90;;;;;;5035126;28;20700;-78
2021/12/01 09:17:45;;;;;;;2.50;2.30;;;10.30;99.90;;;;;;5040783;28;20177;-81
2021/12/01 09:20:12;;;;;;;2.87;2.30;;;10.30;99.90;;;;;;5054483;28;20212;-83
2021/12/01 09:23:03;;;;;;;4.80;2.50;;;10.30;99.90;;;;;;5056385;28;20177;-80
2021/12/01 09:25:40;;;;;;;3.90;2.53;;;10.30;99.90;;;;;;5057185;28;20244;-79
2021/12/01 09:28:27;;;;;;;3.70;2.50;;;10.40;99.90;;;;;;5057135;28;20191;-80
2021/12/01 09:30:57;;;;;;;3.80;2.63;;;10.40;99.90;;;;;;5056397;28;20672;-82
2021/12/01 09:33:29;;;;;;;7.80;2.77;;;10.50;99.90;;;;;;5055762;28;20184;-82
2021/12/01 09:35:56;;;;;;;4.40;2.73;;;10.50;99.90;;;;;;5052863;28;20173;-82
2021/12/01 09:38:22;;;;;;;4.07;3.13;;;10.50;99.90;;;;;;5054153;28;20209;-82
2021/12/01 09:40:55;;;;;;;3.27;2.57;;;10.40;99.90;;;;;;5051762;28;20249;-83
2021/12/01 09:43:25;;;;;;;3.60;2.17;;;10.40;99.90;;;;;;5052944;28;20173;-83
2021/12/01 09:45:52;;;;;;;3.57;2.30;;;10.30;99.90;;;;;;5055377;28;20180;-86
2021/12/01 09:48:19;;;;;;;3.33;2.00;;;10.30;99.90;;;;;;5055757;28;20173;-83
2021/12/01 09:50:45;;;;;;;4.47;2.73;;;10.30;99.90;;;;;;5053396;28;20177;-81
2021/12/01 09:53:12;;;;;;;5.13;2.43;;;10.40;99.90;;;;;;5054999;28;20177;-78
2021/12/01 09:55:40;;;;;;;3.60;2.10;;;10.40;99.90;;;;;;5052200;28;20169;-80
2021/12/01 09:58:22;;;;;;;4.60;2.40;;;10.30;99.90;;;;;;5053727;28;20192;-82
2021/12/01 10:00:54;;;;;;;7.73;4.63;;;10.20;99.90;;;;;;5049617;28;20707;-83
2021/12/01 10:03:21;;;;;;;4.03;1.40;;;10.40;99.90;;;;;;5052944;28;20191;-84
2021/12/01 10:06:10;;;;;;;17.17;9.47;;;10.20;99.90;;;;;;5058470;28;20177;-84
2021/12/01 10:08:40;;;;;;;26.77;11.90;;;10.20;99.90;;;;;;5051767;28;20708;-81
2021/12/01 10:11:16;;;;;;;6.63;2.77;;;10.20;99.90;;;;;;5059328;28;20263;-87
2021/12/01 10:13:44;;;;;;;4.60;1.97;;;10.20;99.90;;;;;;5054148;28;20184;-85
2021/12/01 10:16:13;;;;;;;2.77;1.10;;;10.20;99.90;;;;;;5055273;28;20199;-85
2021/12/01 10:18:43;;;;;;;6.00;1.50;;;10.10;99.90;;;;;;5054660;28;20207;-87
2021/12/01 10:21:34;;;;;;;5.00;1.30;;;10.10;99.90;;;;;;5070085;28;20213;-87
2021/12/01 10:24:08;;;;;;;6.90;1.73;;;10.10;99.90;;;;;;5042365;28;20184;-85
2021/12/01 10:26:46;;;;;;;5.03;1.90;;;10.10;99.90;;;;;;5054763;28;20184;-85
2021/12/01 10:29:30;;;;;;;5.53;1.87;;;10.20;99.90;;;;;;5053857;28;20306;-78
2021/12/01 10:32:22;;;;;;;6.43;2.17;;;10.20;99.90;;;;;;5052862;28;20169;-84
2021/12/01 10:34:58;;;;;;;7.03;1.43;;;10.20;99.90;;;;;;5048230;28;20279;-85
2021/12/01 10:37:29;;;;;;;6.60;1.37;;;10.20;99.90;;;;;;5066283;28;20192;-85
2021/12/01 10:40:18;;;;;;;5.07;1.60;;;10.20;99.90;;;;;;5072975;28;20736;-82
2021/12/01 10:43:11;;;;;;;5.73;1.87;;;10.20;99.90;;;;;;5055806;28;20275;-85
2021/12/01 10:45:47;;;;;;;6.60;2.07;;;10.00;99.90;;;;;;5054270;28;20188;-85
2021/12/01 10:48:23;;;;;;;9.07;2.13;;;10.00;99.90;;;;;;5049890;28;20237;-85
2021/12/01 10:50:50;;;;;;;8.50;2.23;;;9.90;99.90;;;;;;5057001;28;20166;-87
2021/12/01 10:53:18;;;;;;;5.73;1.60;;;9.90;99.90;;;;;;5050928;28;20223;-85
2021/12/01 10:55:54;;;;;;;6.30;1.40;;;9.90;99.90;;;;;;5048340;28;20176;-83
2021/12/01 10:58:20;;;;;;;7.73;2.27;;;9.90;99.90;;;;;;5052005;28;20197;-85
2021/12/01 11:00:47;;;;;;;6.30;2.03;;;10.10;99.90;;;;;;5065465;28;20178;-82
2021/12/01 11:03:15;;;;;;;4.57;2.00;;;10.00;99.90;;;;;;5055025;28;20185;-86
2021/12/01 11:05:45;;;;;;;7.37;1.83;;;10.00;99.90;;;;;;5036902;28;20170;-81
2021/12/01 11:08:29;;;;;;;3.80;1.20;;;10.00;98.30;;;;;;5055997;28;20184;-84
2021/12/01 11:11:06;;;;;;;4.50;2.20;;;9.90;98.30;;;;;;5060250;28;20188;-87
2021/12/01 11:13:33;;;;;;;3.97;1.00;;;9.90;97.60;;;;;;5077131;28;20185;-85
2021/12/01 11:16:00;;;;;;;3.27;1.50;;;9.90;96.30;;;;;;5079616;28;20199;-82
2021/12/01 11:18:29;;;;;;;5.27;1.40;;;10.00;96.80;;;;;;5080557;28;20239;-84
2021/12/01 11:21:03;;;;;;;5.70;1.50;;;10.00;95.60;;;;;;5078494;28;20193;-85
2021/12/01 11:23:40;;;;;;;6.10;1.80;;;9.90;95.80;;;;;;5061246;28;20171;-86
2021/12/01 11:26:20;;;;;;;7.43;2.10;;;10.10;96.00;;;;;;5057925;28;20165;-80
2021/12/01 11:28:52;;;;;;;7.67;2.00;;;10.00;96.40;;;;;;5057418;28;20169;-86
2021/12/01 11:31:45;;;;;;;6.47;2.20;;;10.10;96.10;;;;;;5057951;28;20177;-87
2021/12/01 11:34:15;;;;;;;5.87;2.20;;;10.30;96.20;;;;;;5053189;28;20181;-85
2021/12/01 11:36:44;;;;;;;3.97;1.50;;;10.20;95.30;;;;;;5060499;28;20189;-86
2021/12/01 11:39:12;;;;;;;5.00;1.60;;;10.20;95.90;;;;;;5070423;28;20197;-85
2021/12/01 11:41:42;;;;;;;7.10;1.90;;;10.30;95.60;;;;;;5076918;28;20189;-84
2021/12/01 11:44:10;;;;;;;7.37;1.50;;;10.40;95.40;;;;;;5079991;28;20173;-82
2021/12/01 11:46:40;;;;;;;6.33;1.70;;;10.30;95.10;;;;;;5075045;28;20182;-80
2021/12/01 11:49:11;;;;;;;5.37;1.60;;;10.30;94.70;;;;;;5057198;28;20185;-83
2021/12/01 11:51:48;;;;;;;7.23;1.57;;;10.30;95.10;;;;;;5056095;28;20692;-84
2021/12/01 11:54:19;;;;;;;5.60;1.77;;;10.30;95.50;;;;;;5046604;28;20170;-79
2021/12/01 11:57:00;;;;;;;6.30;1.50;;;10.30;94.80;;;;;;5042554;28;20168;-83
2021/12/01 11:59:37;;;;;;;5.67;1.50;;;10.30;94.70;;;;;;5040804;28;20204;-80
2021/12/01 12:02:18;;;;;;;4.00;1.50;;;10.20;94.10;;;;;;5036212;28;20215;-80
2021/12/01 12:04:48;;;;;;;6.77;1.47;;;10.20;94.50;;;;;;5036341;28;20173;-85
2021/12/01 12:07:17;;;;;;;5.10;1.20;;;10.30;94.30;;;;;;5038493;28;20204;-87
2021/12/01 12:10:18;;;;;;;3.63;1.70;;;10.30;93.10;;;;;;5046996;28;20174;-89
2021/12/01 12:12:47;;;;;;;3.90;1.03;;;10.30;93.10;;;;;;5036780;28;20255;-86
2021/12/01 12:15:32;;;;;;;5.60;1.20;;;10.30;93.00;;;;;;5037354;28;20177;-85
2021/12/01 12:17:58;;;;;;;1.93;0.90;;;10.40;93.10;;;;;;5040414;28;20189;-87
2021/12/01 12:20:27;;;;;;;2.57;1.57;;;10.20;92.00;;;;;;5039674;28;20634;-87
2021/12/01 12:22:58;;;;;;;4.80;1.50;;;10.20;93.20;;;;;;5040066;28;20198;-88
2021/12/01 12:25:54;;;;;;;3.37;1.73;;;10.30;93.90;;;;;;5039908;28;20192;-88
2021/12/01 12:28:21;;;;;;;2.53;1.00;;;10.30;92.40;;;;;;5054882;28;20177;-82
2021/12/01 12:30:48;;;;;;;7.00;1.60;;;10.30;92.60;;;;;;5053646;28;20251;-85
2021/12/01 12:33:21;;;;;;;5.40;1.30;;;10.40;93.10;;;;;;5050306;28;20169;-87
2021/12/01 12:35:51;;;;;;;7.63;1.57;;;10.30;93.50;;;;;;5059568;28;20169;-86
2021/12/01 12:38:17;;;;;;;6.67;1.47;;;10.30;93.90;;;;;;5059202;28;20212;-87
2021/12/01 12:40:47;;;;;;;3.83;1.50;;;10.20;93.70;;;;;;5040926;28;20511;-86
2021/12/01 12:43:32;;;;;;;4.90;1.10;;;10.30;93.60;;;;;;5058174;28;20210;-84
2021/12/01 12:46:03;;;;;;;6.10;1.50;;;10.30;93.30;;;;;;5050491;28;20180;-83
2021/12/01 12:48:41;;;;;;;6.00;1.30;;;10.20;94.00;;;;;;5054012;28;20169;-84
2021/12/01 12:51:17;;;;;;;3.63;1.03;;;10.20;94.40;;;;;;5067085;28;20173;-82
2021/12/01 12:54:06;;;;;;;4.80;1.23;;;10.30;93.90;;;;;;5073370;28;20177;-83
2021/12/01 12:56:54;;;;;;;4.27;1.50;;;10.30;94.10;;;;;;5073876;28;20158;-80
2021/12/01 12:59:38;;;;;;;5.87;1.60;;;10.30;94.30;;;;;;5062155;28;20228;-84
2021/12/01 13:02:11;;;;;;;2.73;1.00;;;10.30;93.90;;;;;;5079401;28;20232;-84
2021/12/01 13:05:07;;;;;;;5.93;1.40;;;10.30;94.00;;;;;;5078355;28;20202;-84
2021/12/01 13:07:51;;;;;;;5.47;1.50;;;10.20;94.60;;;;;;5060671;28;20186;-86
2021/12/01 13:10:34;;;;;;;3.53;1.37;;;10.30;95.10;;;;;;5067510;28;20561;-86
2021/12/01 13:13:00;;;;;;;4.57;1.07;;;10.10;95.60;;;;;;5060960;28;20177;-85
2021/12/01 13:15:49;;;;;;;5.77;1.53;;;10.20;97.10;;;;;;5072015;28;20188;-83
2021/12/01 13:18:44;;;;;;;3.90;1.40;;;10.10;96.90;;;;;;5053845;28;20184;-82
2021/12/01 13:21:23;;;;;;;3.37;1.43;;;10.10;97.90;;;;;;5068760;28;20178;-85
2021/12/01 13:24:32;;;;;;;4.97;1.27;;;9.90;99.10;;;;;;5072751;28;20156;-86
2021/12/01 13:27:01;;;;;;;2.90;1.10;;;9.70;99.90;;;;;;5072587;28;20187;-87
2021/12/01 13:30:06;;;;;;;4.40;1.40;;;9.50;99.90;;;;;;5076996;28;20165;-86
2021/12/01 13:33:12;;;;;;;6.80;1.60;;;9.50;99.90;;;;;;5068915;28;20145;-87
2021/12/01 13:35:40;;;;;;;6.00;1.80;;;9.50;99.90;;;;;;5062950;28;20173;-86
2021/12/01 13:38:07;;;;;;;6.73;1.73;;;9.50;99.90;;;;;;5056404;28;20189;-84